JLY1001 SBSP-SBRJ
Flight info
| Callsign | JLY1001 |
|---|---|
| Flight time | N/A |
| Altitude | 25000 |
| Route | NIBRU UZ171 KEVUN |
| Aircraft | B738/M-SDE2E3FGHIRWXY/LB1 |
Departure
| Time | 2026-05-03 22:11 |
|---|---|
| Airport | Congonhas–Deputado Freitas Nobre Airport (SBSP) |
Arrival
| Time | N/A |
|---|---|
| Airport | Santos Dumont Airport (SBRJ) |
| Time | Latitude | Longitude | Altitude | Speed | Heading |
|---|---|---|---|---|---|
| 2026-05-03 21:47 | -23.62388 | -46.66047 | 2599 ft | 0 kts | 231° |
| 2026-05-03 22:04 | -23.62380 | -46.66037 | 2599 ft | 2 kts | 236° |
| 2026-05-03 22:04 | -23.62372 | -46.66021 | 2599 ft | 2 kts | 256° |
| 2026-05-03 22:04 | -23.62375 | -46.66005 | 2599 ft | 2 kts | 318° |
| 2026-05-03 22:04 | -23.62382 | -46.65998 | 2599 ft | 1 kts | 326° |
| 2026-05-03 22:05 | -23.62383 | -46.65998 | 2599 ft | 0 kts | 326° |
| 2026-05-03 22:07 | -23.62382 | -46.65998 | 2599 ft | 0 kts | 326° |
| 2026-05-03 22:08 | -23.62364 | -46.66011 | 2599 ft | 7 kts | 328° |
| 2026-05-03 22:08 | -23.62311 | -46.66036 | 2599 ft | 9 kts | 347° |
| 2026-05-03 22:08 | -23.62251 | -46.66044 | 2599 ft | 9 kts | 352° |
| 2026-05-03 22:08 | -23.62198 | -46.66069 | 2592 ft | 8 kts | 326° |
| 2026-05-03 22:09 | -23.62150 | -46.66104 | 2593 ft | 8 kts | 327° |
| 2026-05-03 22:09 | -23.62121 | -46.66124 | 2593 ft | 2 kts | 326° |
| 2026-05-03 22:09 | -23.62094 | -46.66137 | 2596 ft | 7 kts | 346° |
| 2026-05-03 22:10 | -23.62060 | -46.66068 | 2591 ft | 0 kts | 148° |
| 2026-05-03 22:10 | -23.62072 | -46.66060 | 2595 ft | 18 kts | 148° |
| 2026-05-03 22:10 | -23.62431 | -46.65811 | 2602 ft | 103 kts | 147° |
| 2026-05-03 22:10 | -23.63231 | -46.65255 | 2754 ft | 160 kts | 147° |
| 2026-05-03 22:11 | -23.64217 | -46.64568 | 3695 ft | 174 kts | 145° |
| 2026-05-03 22:11 | -23.65040 | -46.63567 | 4525 ft | 190 kts | 119° |
| 2026-05-03 22:11 | -23.65651 | -46.62173 | 4799 ft | 220 kts | 116° |
| 2026-05-03 22:11 | -23.66364 | -46.60598 | 5226 ft | 237 kts | 118° |
| 2026-05-03 22:12 | -23.67157 | -46.58982 | 5672 ft | 255 kts | 119° |
| 2026-05-03 22:12 | -23.68044 | -46.57236 | 6348 ft | 267 kts | 119° |
| 2026-05-03 22:12 | -23.68957 | -46.55442 | 7132 ft | 275 kts | 119° |
| 2026-05-03 22:12 | -23.69896 | -46.53595 | 7914 ft | 282 kts | 119° |
| 2026-05-03 22:13 | -23.70861 | -46.51690 | 8686 ft | 290 kts | 120° |
| 2026-05-03 22:13 | -23.71746 | -46.49680 | 9451 ft | 299 kts | 105° |
| 2026-05-03 22:13 | -23.71883 | -46.47406 | 10284 ft | 304 kts | 84° |
| 2026-05-03 22:13 | -23.71586 | -46.45077 | 10810 ft | 320 kts | 81° |
| 2026-05-03 22:14 | -23.71211 | -46.42579 | 11065 ft | 343 kts | 81° |
| 2026-05-03 22:14 | -23.70811 | -46.39972 | 11686 ft | 352 kts | 81° |
| 2026-05-03 22:14 | -23.70411 | -46.37328 | 12446 ft | 355 kts | 81° |
| 2026-05-03 22:14 | -23.70017 | -46.34657 | 13216 ft | 358 kts | 81° |
| 2026-05-03 22:15 | -23.69629 | -46.31986 | 13952 ft | 363 kts | 81° |
| 2026-05-03 22:15 | -23.69230 | -46.29214 | 14594 ft | 369 kts | 81° |
| 2026-05-03 22:15 | -23.68837 | -46.26458 | 15173 ft | 375 kts | 81° |
| 2026-05-03 22:15 | -23.68431 | -46.23622 | 15786 ft | 381 kts | 81° |
| 2026-05-03 22:16 | -23.68020 | -46.20741 | 16373 ft | 387 kts | 81° |
| 2026-05-03 22:16 | -23.67601 | -46.17814 | 16977 ft | 393 kts | 81° |
| 2026-05-03 22:16 | -23.67175 | -46.14847 | 17568 ft | 399 kts | 81° |
| 2026-05-03 22:16 | -23.66743 | -46.11842 | 18138 ft | 405 kts | 81° |
| 2026-05-03 22:17 | -23.66304 | -46.08786 | 18667 ft | 411 kts | 81° |
| 2026-05-03 22:17 | -23.65858 | -46.05685 | 19166 ft | 416 kts | 81° |
| 2026-05-03 22:17 | -23.65407 | -46.02548 | 19697 ft | 420 kts | 81° |
| 2026-05-03 22:17 | -23.64951 | -45.99383 | 20203 ft | 425 kts | 81° |
| 2026-05-03 22:18 | -23.64490 | -45.96180 | 20703 ft | 430 kts | 81° |
| 2026-05-03 22:18 | -23.64021 | -45.92938 | 21202 ft | 435 kts | 81° |
| 2026-05-03 22:18 | -23.63548 | -45.89666 | 21707 ft | 439 kts | 81° |
| 2026-05-03 22:18 | -23.63070 | -45.86361 | 22199 ft | 444 kts | 81° |
| 2026-05-03 22:19 | -23.62584 | -45.83012 | 22682 ft | 449 kts | 81° |
| 2026-05-03 22:19 | -23.62094 | -45.79639 | 23165 ft | 453 kts | 81° |
| 2026-05-03 22:19 | -23.61598 | -45.76229 | 23631 ft | 458 kts | 81° |
| 2026-05-03 22:19 | -23.61102 | -45.72826 | 24020 ft | 463 kts | 81° |
| 2026-05-03 22:20 | -23.60595 | -45.69352 | 24434 ft | 465 kts | 80° |
| 2026-05-03 22:20 | -23.60085 | -45.65858 | 24902 ft | 467 kts | 80° |
| 2026-05-03 22:20 | -23.59572 | -45.62356 | 25226 ft | 469 kts | 80° |
| 2026-05-03 22:20 | -23.59057 | -45.58846 | 25211 ft | 466 kts | 80° |
| 2026-05-03 22:21 | -23.58546 | -45.55366 | 25227 ft | 465 kts | 80° |
| 2026-05-03 22:21 | -23.58035 | -45.51887 | 25233 ft | 465 kts | 80° |
| 2026-05-03 22:21 | -23.57521 | -45.48400 | 25241 ft | 466 kts | 80° |
| 2026-05-03 22:21 | -23.56960 | -45.44907 | 25229 ft | 466 kts | 77° |
| 2026-05-03 22:22 | -23.56270 | -45.41451 | 25238 ft | 466 kts | 75° |
| 2026-05-03 22:22 | -23.55520 | -45.38018 | 25236 ft | 466 kts | 75° |
| 2026-05-03 22:22 | -23.54754 | -45.34591 | 25234 ft | 466 kts | 75° |
| 2026-05-03 22:22 | -23.54002 | -45.31200 | 25231 ft | 465 kts | 75° |
| 2026-05-03 22:23 | -23.53254 | -45.27769 | 25241 ft | 465 kts | 75° |
| 2026-05-03 22:23 | -23.52506 | -45.24288 | 25239 ft | 465 kts | 75° |
| 2026-05-03 22:23 | -23.51785 | -45.20903 | 25228 ft | 465 kts | 75° |
| 2026-05-03 22:23 | -23.51057 | -45.17477 | 25229 ft | 464 kts | 75° |
| 2026-05-03 22:24 | -23.50328 | -45.14048 | 25226 ft | 463 kts | 75° |
| 2026-05-03 22:24 | -23.49600 | -45.10631 | 25224 ft | 463 kts | 75° |
| 2026-05-03 22:24 | -23.48873 | -45.07222 | 25225 ft | 462 kts | 75° |
| 2026-05-03 22:24 | -23.48145 | -45.03815 | 25227 ft | 462 kts | 75° |
| 2026-05-03 22:25 | -23.47416 | -45.00410 | 25229 ft | 462 kts | 75° |
| 2026-05-03 22:25 | -23.46684 | -44.96991 | 25217 ft | 462 kts | 75° |
| 2026-05-03 22:25 | -23.45948 | -44.93576 | 24686 ft | 466 kts | 75° |
| 2026-05-03 22:25 | -23.45194 | -44.90153 | 24265 ft | 462 kts | 75° |
| 2026-05-03 22:26 | -23.44440 | -44.86763 | 23798 ft | 460 kts | 75° |
| 2026-05-03 22:26 | -23.43686 | -44.83389 | 23244 ft | 457 kts | 75° |
| 2026-05-03 22:26 | -23.42937 | -44.80034 | 22739 ft | 454 kts | 75° |
| 2026-05-03 22:26 | -23.42196 | -44.76709 | 22245 ft | 450 kts | 75° |
| 2026-05-03 22:27 | -23.41460 | -44.73409 | 21763 ft | 446 kts | 75° |
| 2026-05-03 22:27 | -23.40729 | -44.70131 | 21286 ft | 443 kts | 75° |
| 2026-05-03 22:27 | -23.40015 | -44.66933 | 20821 ft | 439 kts | 75° |
| 2026-05-03 22:27 | -23.39286 | -44.63668 | 20345 ft | 436 kts | 75° |
| 2026-05-03 22:28 | -23.38573 | -44.60480 | 19868 ft | 433 kts | 75° |
| 2026-05-03 22:28 | -23.37878 | -44.57370 | 19385 ft | 423 kts | 75° |
| 2026-05-03 22:28 | -23.37191 | -44.54302 | 18937 ft | 411 kts | 75° |
| 2026-05-03 22:28 | -23.36510 | -44.51266 | 18468 ft | 406 kts | 75° |
| 2026-05-03 22:29 | -23.35850 | -44.48324 | 17973 ft | 404 kts | 75° |
| 2026-05-03 22:29 | -23.35183 | -44.45357 | 17510 ft | 402 kts | 75° |
| 2026-05-03 22:29 | -23.34512 | -44.42415 | 17056 ft | 399 kts | 73° |
| 2026-05-03 22:29 | -23.33545 | -44.39598 | 16604 ft | 395 kts | 64° |
| 2026-05-03 22:30 | -23.32378 | -44.36909 | 16166 ft | 392 kts | 63° |
| 2026-05-03 22:30 | -23.31178 | -44.34261 | 15719 ft | 389 kts | 63° |
| 2026-05-03 22:30 | -23.29988 | -44.31625 | 15284 ft | 387 kts | 63° |
| 2026-05-03 22:30 | -23.28819 | -44.28994 | 14843 ft | 384 kts | 64° |
| 2026-05-03 22:31 | -23.27674 | -44.26376 | 14396 ft | 381 kts | 64° |
| 2026-05-03 22:31 | -23.26558 | -44.23800 | 13784 ft | 373 kts | 65° |
| 2026-05-03 22:31 | -23.25469 | -44.21274 | 13296 ft | 362 kts | 65° |
| 2026-05-03 22:31 | -23.24421 | -44.18838 | 12857 ft | 351 kts | 65° |
| 2026-05-03 22:32 | -23.23400 | -44.16468 | 12441 ft | 341 kts | 65° |
| 2026-05-03 22:32 | -23.22411 | -44.14171 | 12060 ft | 339 kts | 65° |
| 2026-05-03 22:32 | -23.21413 | -44.11856 | 11668 ft | 338 kts | 65° |
| 2026-05-03 22:32 | -23.20416 | -44.09548 | 11282 ft | 337 kts | 65° |
| 2026-05-03 22:33 | -23.19415 | -44.07256 | 10988 ft | 333 kts | 64° |
| 2026-05-03 22:33 | -23.18387 | -44.05014 | 10804 ft | 331 kts | 64° |
| 2026-05-03 22:33 | -23.17359 | -44.02796 | 10618 ft | 324 kts | 64° |
| 2026-05-03 22:33 | -23.16357 | -44.00631 | 10443 ft | 317 kts | 64° |
| 2026-05-03 22:34 | -23.15391 | -43.98509 | 10270 ft | 310 kts | 65° |
| 2026-05-03 22:34 | -23.14487 | -43.96414 | 10099 ft | 303 kts | 66° |
| 2026-05-03 22:34 | -23.13615 | -43.94361 | 9915 ft | 293 kts | 66° |
| 2026-05-03 22:34 | -23.12772 | -43.92372 | 9750 ft | 287 kts | 66° |
| 2026-05-03 22:35 | -23.11937 | -43.90405 | 9616 ft | 287 kts | 66° |
| 2026-05-03 22:35 | -23.11099 | -43.88438 | 9459 ft | 288 kts | 66° |
| 2026-05-03 22:35 | -23.10255 | -43.86460 | 9316 ft | 288 kts | 66° |
| 2026-05-03 22:35 | -23.09410 | -43.84482 | 9163 ft | 289 kts | 66° |
| 2026-05-03 22:36 | -23.08560 | -43.82496 | 8999 ft | 290 kts | 66° |
| 2026-05-03 22:36 | -23.07707 | -43.80504 | 8847 ft | 291 kts | 66° |
| 2026-05-03 22:36 | -23.06861 | -43.78529 | 8686 ft | 292 kts | 66° |
| 2026-05-03 22:36 | -23.06002 | -43.76526 | 8541 ft | 292 kts | 66° |
| 2026-05-03 22:37 | -23.05147 | -43.74532 | 8381 ft | 289 kts | 65° |
| 2026-05-03 22:37 | -23.04305 | -43.72573 | 8216 ft | 283 kts | 66° |
| 2026-05-03 22:37 | -23.03482 | -43.70658 | 8054 ft | 277 kts | 66° |
| 2026-05-03 22:37 | -23.02671 | -43.68781 | 7836 ft | 274 kts | 65° |
| 2026-05-03 22:38 | -23.01856 | -43.66918 | 7602 ft | 273 kts | 65° |
| 2026-05-03 22:38 | -23.01038 | -43.65049 | 7365 ft | 274 kts | 66° |
| 2026-05-03 22:38 | -23.00217 | -43.63175 | 7120 ft | 275 kts | 66° |
| 2026-05-03 22:38 | -22.99400 | -43.61313 | 6926 ft | 271 kts | 66° |
| 2026-05-03 22:39 | -22.98592 | -43.59477 | 6767 ft | 266 kts | 66° |
| 2026-05-03 22:39 | -22.97801 | -43.57678 | 6604 ft | 262 kts | 66° |
| 2026-05-03 22:39 | -22.97030 | -43.55924 | 6475 ft | 252 kts | 66° |
| 2026-05-03 22:39 | -22.96290 | -43.54243 | 6301 ft | 242 kts | 66° |
| 2026-05-03 22:40 | -22.95576 | -43.52625 | 6145 ft | 233 kts | 66° |
| 2026-05-03 22:40 | -22.94891 | -43.51071 | 5993 ft | 225 kts | 67° |
| 2026-05-03 22:40 | -22.94249 | -43.49566 | 5795 ft | 219 kts | 67° |
| 2026-05-03 22:40 | -22.93612 | -43.48056 | 5627 ft | 217 kts | 67° |
| 2026-05-03 22:41 | -22.92985 | -43.46576 | 5410 ft | 219 kts | 68° |
| 2026-05-03 22:41 | -22.92361 | -43.45104 | 5297 ft | 209 kts | 67° |
| 2026-05-03 22:41 | -22.91761 | -43.43688 | 5087 ft | 201 kts | 68° |
| 2026-05-03 22:41 | -22.91189 | -43.42332 | 4920 ft | 197 kts | 67° |
| 2026-05-03 22:42 | -22.90618 | -43.40983 | 4747 ft | 197 kts | 67° |
| 2026-05-03 22:42 | -22.90238 | -43.40086 | 4623 ft | 198 kts | 67° |
| 2026-05-03 22:42 | -22.89660 | -43.38724 | 4448 ft | 198 kts | 67° |
| 2026-05-03 22:42 | -22.89084 | -43.37366 | 4277 ft | 199 kts | 67° |
| 2026-05-03 22:43 | -22.88511 | -43.36010 | 4092 ft | 199 kts | 69° |
| 2026-05-03 22:43 | -22.88319 | -43.34563 | 3837 ft | 190 kts | 102° |
| 2026-05-03 22:43 | -22.88481 | -43.33179 | 3656 ft | 181 kts | 99° |
| 2026-05-03 22:43 | -22.88604 | -43.31842 | 3412 ft | 176 kts | 99° |
| 2026-05-03 22:44 | -22.88724 | -43.30534 | 3197 ft | 174 kts | 99° |
| 2026-05-03 22:44 | -22.88845 | -43.29216 | 2990 ft | 176 kts | 99° |
| 2026-05-03 22:44 | -22.88966 | -43.27898 | 2770 ft | 175 kts | 99° |
| 2026-05-03 22:44 | -22.89096 | -43.26596 | 2517 ft | 172 kts | 104° |
| 2026-05-03 22:45 | -22.89559 | -43.25432 | 2240 ft | 165 kts | 121° |
| 2026-05-03 22:45 | -22.90075 | -43.24319 | 1982 ft | 162 kts | 119° |
| 2026-05-03 22:45 | -22.90549 | -43.23262 | 1727 ft | 152 kts | 119° |
| 2026-05-03 22:45 | -22.91004 | -43.22250 | 1446 ft | 147 kts | 118° |
| 2026-05-03 22:46 | -22.91453 | -43.21255 | 1262 ft | 145 kts | 118° |
| 2026-05-03 22:46 | -22.91923 | -43.20296 | 1223 ft | 148 kts | 121° |
| 2026-05-03 22:46 | -22.92501 | -43.19324 | 1179 ft | 158 kts | 128° |
| 2026-05-03 22:46 | -22.93166 | -43.18367 | 863 ft | 160 kts | 124° |
| 2026-05-03 22:47 | -22.93615 | -43.17272 | 482 ft | 159 kts | 102° |
| 2026-05-03 22:47 | -22.93760 | -43.16115 | 531 ft | 158 kts | 95° |
| 2026-05-03 22:47 | -22.93854 | -43.14931 | 1118 ft | 165 kts | 96° |
| 2026-05-03 22:47 | -22.94142 | -43.13594 | 1406 ft | 198 kts | 109° |
| 2026-05-03 22:48 | -22.94543 | -43.12140 | 2306 ft | 198 kts | 110° |
| 2026-05-03 22:48 | -22.94992 | -43.10615 | 2801 ft | 226 kts | 111° |
| 2026-05-03 22:48 | -22.95506 | -43.08898 | 2990 ft | 253 kts | 111° |
| 2026-05-03 22:48 | -22.96076 | -43.06996 | 2983 ft | 270 kts | 111° |
| 2026-05-03 22:49 | -22.96642 | -43.05075 | 2993 ft | 262 kts | 111° |
| 2026-05-03 22:49 | -22.97183 | -43.03232 | 2976 ft | 249 kts | 111° |
| 2026-05-03 22:49 | -22.97693 | -43.01494 | 3007 ft | 236 kts | 111° |
| 2026-05-03 22:49 | -22.98247 | -42.99843 | 2971 ft | 233 kts | 126° |
| 2026-05-03 22:50 | -22.99444 | -42.98772 | 3000 ft | 226 kts | 166° |
| 2026-05-03 22:50 | -23.01049 | -42.98670 | 3260 ft | 244 kts | 194° |
| 2026-05-03 22:50 | -23.02618 | -42.99409 | 4047 ft | 251 kts | 212° |
| 2026-05-03 22:50 | -23.04296 | -42.99965 | 4951 ft | 261 kts | 183° |
| 2026-05-03 22:51 | -23.06107 | -42.99848 | 5348 ft | 258 kts | 180° |
| 2026-05-03 22:51 | -23.07886 | -42.99793 | 5631 ft | 254 kts | 183° |
| 2026-05-03 22:51 | -23.09659 | -42.99824 | 5925 ft | 254 kts | 185° |
| 2026-05-03 22:51 | -23.11433 | -42.99895 | 6222 ft | 254 kts | 186° |
| 2026-05-03 22:52 | -23.13059 | -43.00298 | 6448 ft | 229 kts | 211° |
| 2026-05-03 22:52 | -23.14207 | -43.01385 | 6685 ft | 211 kts | 233° |
| 2026-05-03 22:52 | -23.14867 | -43.02844 | 6218 ft | 219 kts | 256° |
| 2026-05-03 22:52 | -23.14946 | -43.04400 | 6177 ft | 205 kts | 276° |
| 2026-05-03 22:53 | -23.14542 | -43.05851 | 6009 ft | 200 kts | 292° |
| 2026-05-03 22:53 | -23.13735 | -43.07085 | 5702 ft | 204 kts | 311° |
| 2026-05-03 22:53 | -23.12661 | -43.08098 | 5395 ft | 205 kts | 315° |
| 2026-05-03 22:53 | -23.11559 | -43.09073 | 5097 ft | 204 kts | 315° |
| 2026-05-03 22:54 | -23.10461 | -43.10043 | 4789 ft | 203 kts | 315° |
| 2026-05-03 22:54 | -23.09320 | -43.10951 | 4475 ft | 207 kts | 331° |
| 2026-05-03 22:54 | -23.07895 | -43.11280 | 4145 ft | 210 kts | 348° |
| 2026-05-03 22:54 | -23.06443 | -43.11496 | 3766 ft | 210 kts | 347° |
| 2026-05-03 22:55 | -23.04998 | -43.11726 | 3401 ft | 210 kts | 347° |
| 2026-05-03 22:55 | -23.03558 | -43.11957 | 3045 ft | 209 kts | 347° |
| 2026-05-03 22:55 | -23.02128 | -43.12186 | 2712 ft | 206 kts | 347° |
| 2026-05-03 22:55 | -23.00715 | -43.12413 | 2350 ft | 206 kts | 348° |
| 2026-05-03 22:56 | -22.99294 | -43.12641 | 1927 ft | 204 kts | 348° |
| 2026-05-03 22:56 | -22.97924 | -43.12860 | 1501 ft | 198 kts | 349° |
| 2026-05-03 22:56 | -22.96600 | -43.13072 | 1196 ft | 185 kts | 349° |
| 2026-05-03 22:56 | -22.95427 | -43.13449 | 896 ft | 169 kts | 324° |
| 2026-05-03 22:57 | -22.94753 | -43.14377 | 799 ft | 151 kts | 299° |
| 2026-05-03 22:57 | -22.94234 | -43.15314 | 558 ft | 140 kts | 299° |
| 2026-05-03 22:57 | -22.93649 | -43.16117 | 347 ft | 137 kts | 329° |
| 2026-05-03 22:57 | -22.92724 | -43.16259 | 288 ft | 138 kts | 5° |
| 2026-05-03 22:58 | -22.91760 | -43.16241 | 117 ft | 139 kts | 354° |
| 2026-05-03 22:58 | -22.90833 | -43.16252 | 482 ft | 128 kts | 359° |
| 2026-05-03 22:58 | -22.89902 | -43.16237 | 1039 ft | 151 kts | 359° |
| 2026-05-03 22:58 | -22.88757 | -43.16152 | 1353 ft | 178 kts | 13° |
| 2026-05-03 22:59 | -22.87633 | -43.15507 | 1885 ft | 190 kts | 41° |
| 2026-05-03 22:59 | -22.86807 | -43.14387 | 1939 ft | 190 kts | 64° |
| 2026-05-03 22:59 | -22.86394 | -43.13038 | 1993 ft | 190 kts | 82° |
| 2026-05-03 22:59 | -22.86521 | -43.11608 | 2125 ft | 203 kts | 122° |
| 2026-05-03 23:00 | -22.87611 | -43.10577 | 2379 ft | 221 kts | 160° |
| 2026-05-03 23:00 | -22.89128 | -43.10053 | 2682 ft | 243 kts | 168° |
| 2026-05-03 23:00 | -22.90792 | -43.09595 | 3315 ft | 248 kts | 169° |
| 2026-05-03 23:00 | -22.92426 | -43.09155 | 4571 ft | 235 kts | 170° |
| 2026-05-03 23:01 | -22.94057 | -43.08705 | 5256 ft | 252 kts | 169° |
| 2026-05-03 23:01 | -22.95770 | -43.08218 | 5498 ft | 256 kts | 169° |
| 2026-05-03 23:01 | -22.97483 | -43.07709 | 5521 ft | 254 kts | 169° |
| 2026-05-03 23:01 | -22.99191 | -43.07193 | 5519 ft | 256 kts | 169° |
| 2026-05-03 23:02 | -23.00911 | -43.06680 | 5536 ft | 256 kts | 169° |
| 2026-05-03 23:02 | -23.02634 | -43.06170 | 5528 ft | 257 kts | 169° |
| 2026-05-03 23:02 | -23.04344 | -43.05653 | 5512 ft | 250 kts | 168° |
| 2026-05-03 23:02 | -23.05968 | -43.05146 | 5510 ft | 237 kts | 169° |
| 2026-05-03 23:03 | -23.07514 | -43.04662 | 5510 ft | 225 kts | 169° |
| 2026-05-03 23:03 | -23.08968 | -43.04207 | 5531 ft | 211 kts | 169° |
| 2026-05-03 23:03 | -23.10362 | -43.03790 | 5516 ft | 201 kts | 176° |
| 2026-05-03 23:03 | -23.11651 | -43.03963 | 5534 ft | 189 kts | 209° |
| 2026-05-03 23:04 | -23.12656 | -43.04879 | 5523 ft | 187 kts | 237° |
| 2026-05-03 23:04 | -23.13073 | -43.06174 | 5522 ft | 187 kts | 265° |
| 2026-05-03 23:04 | -23.12820 | -43.07558 | 5527 ft | 191 kts | 292° |
| 2026-05-03 23:04 | -23.11959 | -43.08676 | 5533 ft | 197 kts | 315° |
| 2026-05-03 23:05 | -23.10899 | -43.09627 | 5531 ft | 197 kts | 314° |
| 2026-05-03 23:05 | -23.09716 | -43.10448 | 5539 ft | 213 kts | 329° |
| 2026-05-03 23:05 | -23.08349 | -43.11072 | 5386 ft | 214 kts | 336° |
| 2026-05-03 23:05 | -23.06895 | -43.11442 | 5125 ft | 215 kts | 346° |
| 2026-05-03 23:06 | -23.05409 | -43.11683 | 4820 ft | 215 kts | 347° |
| 2026-05-03 23:06 | -23.03927 | -43.11912 | 4503 ft | 214 kts | 347° |
| 2026-05-03 23:06 | -23.02456 | -43.12141 | 4158 ft | 214 kts | 347° |
| 2026-05-03 23:06 | -23.00988 | -43.12373 | 3831 ft | 212 kts | 347° |
| 2026-05-03 23:07 | -22.99539 | -43.12603 | 3501 ft | 208 kts | 347° |
| 2026-05-03 23:07 | -22.98124 | -43.12828 | 3124 ft | 203 kts | 347° |
| 2026-05-03 23:07 | -22.96741 | -43.13049 | 2778 ft | 199 kts | 348° |
| 2026-05-03 23:07 | -22.95443 | -43.13456 | 2362 ft | 190 kts | 319° |
| 2026-05-03 23:08 | -22.94714 | -43.14543 | 2055 ft | 173 kts | 295° |
| 2026-05-03 23:08 | -22.94082 | -43.15646 | 1661 ft | 172 kts | 304° |